createdAt,value
2023-04-29T00:01:20.908Z,6.38
2023-04-29T00:03:47.852Z,7.13
2023-04-29T00:06:15.193Z,6.13
2023-04-29T00:08:42.206Z,6.40
2023-04-29T00:11:08.930Z,5.20
2023-04-29T00:13:35.729Z,5.47
2023-04-29T00:16:02.919Z,4.85
2023-04-29T00:18:29.670Z,4.80
2023-04-29T00:20:56.393Z,5.03
2023-04-29T00:23:23.476Z,4.60
2023-04-29T00:25:51.901Z,4.10
2023-04-29T00:28:18.686Z,3.90
2023-04-29T00:30:45.487Z,4.40
2023-04-29T00:33:12.647Z,4.35
2023-04-29T00:35:39.482Z,3.88
2023-04-29T00:38:06.183Z,4.15
2023-04-29T00:40:33.219Z,4.32
2023-04-29T00:42:59.934Z,4.60
2023-04-29T00:45:27.579Z,4.70
2023-04-29T00:47:54.362Z,4.10
2023-04-29T00:50:22.142Z,3.92
2023-04-29T00:52:49.344Z,3.60
2023-04-29T00:55:16.897Z,3.30
2023-04-29T00:57:43.814Z,3.40
2023-04-29T01:00:11.050Z,3.05
2023-04-29T01:02:38.690Z,3.72
2023-04-29T01:05:05.661Z,3.97
2023-04-29T01:07:53.828Z,4.43
2023-04-29T01:10:44.123Z,4.78
2023-04-29T01:13:30.865Z,4.72
2023-04-29T01:15:59.002Z,5.53
2023-04-29T01:18:37.188Z,5.55
2023-04-29T01:21:04.909Z,6.10
2023-04-29T01:23:32.071Z,6.28
2023-04-29T01:26:00.974Z,5.40
2023-04-29T01:28:43.584Z,5.70
2023-04-29T01:31:18.380Z,5.15
2023-04-29T01:33:56.089Z,6.10
2023-04-29T01:36:31.521Z,5.72
2023-04-29T01:39:10.091Z,5.72
2023-04-29T01:41:54.545Z,6.60
2023-04-29T01:44:24.393Z,7.40
2023-04-29T01:46:54.197Z,8.98
2023-04-29T01:49:28.486Z,8.60
2023-04-29T01:51:56.055Z,7.57
2023-04-29T01:54:22.866Z,8.10
2023-04-29T01:56:50.348Z,8.60
2023-04-29T01:59:17.193Z,7.70
2023-04-29T02:01:44.257Z,8.18
2023-04-29T02:04:11.178Z,8.13
2023-04-29T02:06:38.494Z,7.38
2023-04-29T02:09:06.041Z,7.70
2023-04-29T02:11:33.563Z,8.55
2023-04-29T02:14:01.689Z,8.15
2023-04-29T02:16:29.857Z,8.02
2023-04-29T02:18:56.638Z,8.60
2023-04-29T02:21:23.477Z,9.25
2023-04-29T02:23:50.660Z,8.85
2023-04-29T02:26:17.488Z,8.82
2023-04-29T02:28:45.122Z,8.20
2023-04-29T02:31:12.510Z,7.88
2023-04-29T02:33:39.699Z,8.63
2023-04-29T02:36:06.493Z,9.48
2023-04-29T02:38:33.796Z,8.25
2023-04-29T02:41:00.610Z,8.07
2023-04-29T02:43:30.869Z,8.63
2023-04-29T02:45:58.714Z,8.35
2023-04-29T02:48:25.498Z,9.35
2023-04-29T02:50:52.803Z,9.05
2023-04-29T02:53:20.924Z,9.98
2023-04-29T02:55:48.292Z,10.05
2023-04-29T02:58:15.088Z,10.13
2023-04-29T03:00:42.200Z,9.88
2023-04-29T03:03:09.616Z,10.55
2023-04-29T03:05:36.636Z,9.85
2023-04-29T03:08:04.681Z,10.75
2023-04-29T03:10:31.707Z,10.60
2023-04-29T03:12:58.565Z,10.50
2023-04-29T03:15:25.431Z,10.70
2023-04-29T03:17:52.381Z,9.80
2023-04-29T03:20:19.559Z,9.07
2023-04-29T03:22:46.606Z,8.70
2023-04-29T03:25:13.416Z,9.45
2023-04-29T03:27:40.162Z,8.85
2023-04-29T03:30:07.830Z,9.32
2023-04-29T03:32:35.315Z,8.95
2023-04-29T03:35:02.183Z,9.30
2023-04-29T03:37:29.311Z,8.55
2023-04-29T03:39:56.079Z,7.82
2023-04-29T03:42:23.040Z,7.90
2023-04-29T03:44:50.396Z,8.02
2023-04-29T03:47:17.124Z,7.78
2023-04-29T03:49:43.888Z,8.23
2023-04-29T03:52:12.468Z,8.73
2023-04-29T03:54:39.273Z,7.40
2023-04-29T03:57:06.504Z,7.28
2023-04-29T03:59:33.286Z,8.23
2023-04-29T04:02:00.052Z,6.30
2023-04-29T04:04:27.099Z,6.70
2023-04-29T04:06:54.021Z,6.95
2023-04-29T04:09:20.840Z,7.53
2023-04-29T04:11:47.978Z,7.47
2023-04-29T04:14:15.430Z,6.25
2023-04-29T04:16:42.851Z,8.25
2023-04-29T04:19:10.050Z,8.02
2023-04-29T04:21:37.478Z,8.25
2023-04-29T04:24:04.508Z,8.25
2023-04-29T04:26:31.342Z,7.57
2023-04-29T04:28:58.098Z,7.75
2023-04-29T04:31:25.402Z,8.05
2023-04-29T04:33:52.229Z,7.28
2023-04-29T04:36:19.006Z,7.78
2023-04-29T04:38:45.865Z,7.78
2023-04-29T04:41:12.658Z,8.05
2023-04-29T04:43:40.962Z,9.18
2023-04-29T04:46:15.950Z,8.07
2023-04-29T04:48:43.023Z,8.18
2023-04-29T04:51:11.339Z,8.75
2023-04-29T04:53:38.723Z,9.18
2023-04-29T04:56:06.552Z,8.10
2023-04-29T04:58:33.537Z,9.52
2023-04-29T05:01:01.048Z,9.05
2023-04-29T05:03:28.333Z,8.77
2023-04-29T05:05:56.676Z,9.10
2023-04-29T05:08:23.645Z,8.70
2023-04-29T05:10:50.639Z,8.50
2023-04-29T05:13:18.405Z,7.72
2023-04-29T05:15:46.009Z,8.88
2023-04-29T05:18:12.917Z,9.18
2023-04-29T05:20:40.029Z,7.72
2023-04-29T05:23:07.081Z,8.50
2023-04-29T05:25:33.874Z,10.50
2023-04-29T05:28:02.005Z,10.20
2023-04-29T05:30:29.002Z,8.07
2023-04-29T05:32:56.334Z,8.43
2023-04-29T05:35:23.222Z,8.10
2023-04-29T05:37:49.977Z,8.93
2023-04-29T05:40:16.852Z,9.52
2023-04-29T05:42:43.628Z,10.10
2023-04-29T05:45:10.834Z,9.35
2023-04-29T05:47:38.018Z,9.05
2023-04-29T05:50:05.163Z,8.82
2023-04-29T05:52:31.891Z,8.52
2023-04-29T05:54:58.679Z,9.30
2023-04-29T05:57:25.422Z,9.05
2023-04-29T05:59:55.148Z,7.85
2023-04-29T06:02:22.770Z,7.95
2023-04-29T06:04:49.874Z,8.30
2023-04-29T06:07:19.982Z,7.90
2023-04-29T06:09:47.258Z,7.78
2023-04-29T06:12:13.997Z,7.47
2023-04-29T06:14:40.764Z,7.63
2023-04-29T06:17:07.594Z,7.32
2023-04-29T06:19:34.377Z,7.57
2023-04-29T06:22:01.136Z,8.02
2023-04-29T06:24:27.929Z,8.82
2023-04-29T06:26:54.722Z,9.10
2023-04-29T06:29:21.458Z,7.80
2023-04-29T06:31:48.315Z,9.40
2023-04-29T06:34:15.164Z,9.00
2023-04-29T06:36:42.016Z,10.00
2023-04-29T06:39:08.787Z,10.38
2023-04-29T06:41:36.816Z,9.00
2023-04-29T06:44:03.754Z,8.95
2023-04-29T06:46:30.947Z,8.52
2023-04-29T06:48:57.776Z,8.07
2023-04-29T06:51:25.016Z,7.68
2023-04-29T06:53:51.887Z,6.85
2023-04-29T06:56:18.918Z,7.80
2023-04-29T06:58:45.679Z,7.82
2023-04-29T07:01:12.572Z,7.38
2023-04-29T07:03:39.460Z,6.60
2023-04-29T07:06:06.565Z,6.07
2023-04-29T07:08:33.527Z,6.25
2023-04-29T07:11:00.374Z,6.65
2023-04-29T07:13:27.175Z,6.53
2023-04-29T07:15:54.215Z,6.30
2023-04-29T07:18:21.042Z,5.95
2023-04-29T07:20:48.215Z,6.88
2023-04-29T07:23:15.463Z,5.53
2023-04-29T07:25:42.236Z,4.35
2023-04-29T07:28:09.393Z,5.53
2023-04-29T07:30:36.410Z,5.20
2023-04-29T07:33:04.488Z,5.38
2023-04-29T07:35:31.687Z,5.80
2023-04-29T07:37:58.606Z,5.47
2023-04-29T07:40:25.514Z,5.72
2023-04-29T07:42:52.319Z,4.80
2023-04-29T07:45:19.158Z,4.53
2023-04-29T07:47:46.344Z,5.53
2023-04-29T07:50:13.206Z,5.10
2023-04-29T07:52:40.030Z,4.50
2023-04-29T07:55:07.123Z,4.35
2023-04-29T07:57:34.556Z,3.67
2023-04-29T08:00:01.372Z,3.67
2023-04-29T08:02:28.443Z,3.40
2023-04-29T08:04:56.541Z,3.33
2023-04-29T08:07:23.834Z,3.50
2023-04-29T08:09:50.649Z,3.08
2023-04-29T08:12:17.456Z,2.75
2023-04-29T08:14:44.535Z,3.22
2023-04-29T08:17:11.580Z,3.08
2023-04-29T08:19:38.551Z,3.80
2023-04-29T08:22:05.638Z,3.50
2023-04-29T08:24:34.041Z,3.80
2023-04-29T08:27:01.407Z,3.70
2023-04-29T08:29:28.325Z,4.20
2023-04-29T08:31:55.445Z,4.07
2023-04-29T08:34:22.258Z,3.72
2023-04-29T08:36:49.113Z,4.15
2023-04-29T08:39:16.037Z,3.78
2023-04-29T08:41:49.218Z,4.38
2023-04-29T08:44:17.269Z,4.13
2023-04-29T08:46:46.212Z,3.85
2023-04-29T08:49:13.917Z,3.63
2023-04-29T08:51:40.720Z,3.97
2023-04-29T08:54:07.989Z,4.15
2023-04-29T08:56:34.986Z,3.60
2023-04-29T08:59:04.283Z,3.55
2023-04-29T09:01:31.879Z,3.65
2023-04-29T09:04:25.259Z,3.70
2023-04-29T09:06:56.234Z,4.90
2023-04-29T09:09:25.010Z,4.07
2023-04-29T09:11:52.667Z,4.15
2023-04-29T09:14:20.478Z,4.60
2023-04-29T09:16:48.550Z,4.13
2023-04-29T09:19:35.196Z,4.03
2023-04-29T09:22:03.608Z,4.10
2023-04-29T09:24:31.690Z,4.07
2023-04-29T09:26:59.668Z,3.90
2023-04-29T09:29:26.512Z,3.83
2023-04-29T09:31:53.645Z,3.90
2023-04-29T09:34:40.670Z,3.70
2023-04-29T09:37:24.730Z,3.50
2023-04-29T09:39:51.545Z,3.08
2023-04-29T09:42:18.466Z,3.08
2023-04-29T09:44:46.064Z,3.47
2023-04-29T09:47:13.450Z,3.40
2023-04-29T09:49:49.964Z,3.17
2023-04-29T09:52:18.121Z,3.95
2023-04-29T09:54:46.121Z,3.22
2023-04-29T09:57:16.659Z,4.13
2023-04-29T09:59:43.712Z,3.70
2023-04-29T10:02:15.786Z,3.10
2023-04-29T10:04:45.659Z,3.00
2023-04-29T10:07:16.873Z,3.45
2023-04-29T10:09:48.793Z,3.10
2023-04-29T10:12:20.977Z,4.60
2023-04-29T10:15:08.441Z,4.60
2023-04-29T10:17:49.938Z,4.43
2023-04-29T10:20:24.388Z,4.53
2023-04-29T10:22:54.642Z,4.72
2023-04-29T10:25:24.457Z,4.07
2023-04-29T10:27:53.700Z,4.10
2023-04-29T10:30:22.676Z,4.00
2023-04-29T10:32:52.532Z,3.08
2023-04-29T10:35:23.428Z,3.67
2023-04-29T10:37:51.466Z,3.78
2023-04-29T10:40:24.697Z,3.58
2023-04-29T10:42:55.590Z,3.00
2023-04-29T10:45:35.371Z,2.78
2023-04-29T10:48:06.190Z,2.88
2023-04-29T10:50:34.004Z,2.65
2023-04-29T10:53:03.391Z,2.50
2023-04-29T10:55:31.362Z,3.17
2023-04-29T10:57:58.984Z,3.13
2023-04-29T11:00:30.600Z,3.20
2023-04-29T11:02:59.689Z,2.53
2023-04-29T11:05:33.992Z,3.05
2023-04-29T11:08:23.080Z,2.90
2023-04-29T11:10:54.613Z,2.90
2023-04-29T11:13:27.555Z,3.15
2023-04-29T11:16:11.826Z,2.65
2023-04-29T11:19:05.104Z,2.85
2023-04-29T11:21:37.027Z,3.05
2023-04-29T11:24:06.627Z,2.70
2023-04-29T11:26:38.776Z,3.00
2023-04-29T11:29:10.572Z,3.13
2023-04-29T11:31:39.270Z,3.00
2023-04-29T11:34:07.487Z,3.08
2023-04-29T11:36:36.271Z,3.28
2023-04-29T11:39:04.216Z,3.15
2023-04-29T11:41:32.169Z,3.00
2023-04-29T11:44:01.001Z,3.03
2023-04-29T11:46:32.523Z,3.00
2023-04-29T11:49:00.498Z,3.13
2023-04-29T11:51:28.535Z,3.22
2023-04-29T11:53:58.005Z,3.15
2023-04-29T11:56:25.924Z,2.95
2023-04-29T11:58:56.762Z,2.90
2023-04-29T12:01:25.163Z,2.85
2023-04-29T12:03:59.576Z,2.90
2023-04-29T12:06:30.359Z,2.72
2023-04-29T12:09:02.228Z,3.00
2023-04-29T12:11:29.645Z,2.45
2023-04-29T12:13:58.131Z,2.50
2023-04-29T12:16:25.741Z,2.15
2023-04-29T12:18:53.382Z,2.03
2023-04-29T12:21:22.580Z,2.75
2023-04-29T12:23:50.652Z,2.53
2023-04-29T12:26:21.086Z,2.35
2023-04-29T12:28:53.754Z,2.65
2023-04-29T12:31:21.230Z,2.40
2023-04-29T12:33:48.079Z,2.40
2023-04-29T12:36:20.275Z,2.80
2023-04-29T12:38:48.865Z,2.38
2023-04-29T12:41:17.193Z,2.60
2023-04-29T12:43:44.785Z,2.20
2023-04-29T12:46:15.254Z,1.90
2023-04-29T12:48:43.777Z,2.35
2023-04-29T12:51:12.033Z,1.95
2023-04-29T12:53:39.471Z,2.03
2023-04-29T12:56:06.783Z,1.98
2023-04-29T12:58:36.732Z,2.03
2023-04-29T13:01:03.609Z,2.20
2023-04-29T13:03:30.661Z,1.95
2023-04-29T13:05:57.717Z,2.00
2023-04-29T13:08:24.761Z,2.15
2023-04-29T13:10:51.936Z,2.00
2023-04-29T13:13:18.688Z,2.10
2023-04-29T13:15:45.425Z,2.55
2023-04-29T13:18:12.178Z,1.90
2023-04-29T13:20:42.099Z,2.40
2023-04-29T13:23:09.934Z,2.30
2023-04-29T13:25:37.001Z,2.13
2023-04-29T13:28:05.434Z,2.33
2023-04-29T13:30:33.052Z,2.10
2023-04-29T13:33:08.486Z,2.22
2023-04-29T13:35:40.076Z,1.80
2023-04-29T13:38:07.649Z,1.50
2023-04-29T13:40:38.746Z,1.80
2023-04-29T13:43:09.594Z,1.80
2023-04-29T13:45:39.932Z,1.63
2023-04-29T13:48:25.992Z,1.60
2023-04-29T14:03:26.915Z,1.73
2023-04-29T14:05:53.920Z,2.00
2023-04-29T14:08:21.030Z,1.80
2023-04-29T14:10:47.928Z,1.80
2023-04-29T14:13:14.780Z,1.88
2023-04-29T14:15:41.810Z,1.70
2023-04-29T14:18:09.775Z,2.05
2023-04-29T14:20:36.575Z,2.30
2023-04-29T14:23:03.452Z,1.98
2023-04-29T14:25:31.678Z,1.77
2023-04-29T14:28:00.982Z,2.20
2023-04-29T14:30:27.802Z,2.00
2023-04-29T14:32:55.033Z,1.77
2023-04-29T14:35:21.829Z,2.17
2023-04-29T14:37:50.404Z,1.83
2023-04-29T14:40:17.139Z,2.05
2023-04-29T14:42:44.357Z,1.92
2023-04-29T14:45:12.224Z,2.20
2023-04-29T14:47:39.034Z,2.15
2023-04-29T14:50:07.183Z,2.45
2023-04-29T14:52:33.970Z,2.42
2023-04-29T14:55:00.735Z,2.30
2023-04-29T14:57:27.844Z,2.05
2023-04-29T14:59:54.720Z,2.10
2023-04-29T15:02:21.559Z,2.10
2023-04-29T15:04:49.316Z,2.42
2023-04-29T15:07:17.753Z,2.50
2023-04-29T15:09:44.687Z,2.20
2023-04-29T15:12:11.488Z,2.45
2023-04-29T15:14:38.291Z,2.20
2023-04-29T15:17:05.154Z,2.40
2023-04-29T15:19:32.205Z,2.55
2023-04-29T15:21:59.317Z,2.70
2023-04-29T15:24:26.883Z,2.78
2023-04-29T15:26:53.802Z,2.78
2023-04-29T15:29:20.690Z,2.47
2023-04-29T15:31:48.736Z,2.58
2023-04-29T15:34:15.657Z,2.45
2023-04-29T15:36:42.538Z,2.80
2023-04-29T15:39:10.996Z,2.60
2023-04-29T15:41:38.965Z,2.45
2023-04-29T15:44:06.619Z,2.80
2023-04-29T15:46:33.680Z,2.83
2023-04-29T15:49:02.347Z,2.90
2023-04-29T15:51:31.587Z,2.35
2023-04-29T15:53:58.497Z,2.30
2023-04-29T15:56:25.925Z,2.30
2023-04-29T15:58:53.147Z,2.45
2023-04-29T16:01:19.978Z,2.50
2023-04-29T16:03:47.251Z,2.40
2023-04-29T16:06:16.415Z,2.65
2023-04-29T16:08:43.430Z,2.30
2023-04-29T16:11:10.710Z,2.50
2023-04-29T16:13:37.479Z,2.60
2023-04-29T16:16:04.467Z,2.30
2023-04-29T16:18:32.256Z,2.47
2023-04-29T16:20:59.140Z,2.13
2023-04-29T16:23:25.904Z,2.22
2023-04-29T16:25:52.722Z,2.28
2023-04-29T16:28:19.572Z,2.10
2023-04-29T16:30:46.377Z,2.50
2023-04-29T16:33:13.923Z,2.50
2023-04-29T16:35:40.892Z,2.40
2023-04-29T16:38:07.732Z,2.17
2023-04-29T16:40:34.657Z,2.63
2023-04-29T16:43:01.570Z,2.30
2023-04-29T16:45:28.720Z,2.88
2023-04-29T16:47:55.661Z,2.60
2023-04-29T16:50:22.512Z,2.45
2023-04-29T16:52:49.269Z,2.20
2023-04-29T16:55:16.189Z,2.53
2023-04-29T16:57:43.703Z,2.38
2023-04-29T17:00:12.108Z,2.67
2023-04-29T17:02:43.053Z,2.20
2023-04-29T17:05:10.962Z,2.83
2023-04-29T17:07:38.100Z,2.60
2023-04-29T17:10:06.723Z,2.45
2023-04-29T17:12:33.875Z,2.17
2023-04-29T17:15:00.985Z,2.58
2023-04-29T17:17:28.152Z,2.80
2023-04-29T17:19:55.564Z,2.33
2023-04-29T17:22:22.916Z,2.60
2023-04-29T17:24:50.797Z,2.22
2023-04-29T17:27:17.934Z,2.38
2023-04-29T17:29:45.098Z,1.73
2023-04-29T17:32:15.166Z,1.20
2023-04-29T17:34:42.477Z,1.30
2023-04-29T17:37:09.621Z,1.65
2023-04-29T17:39:36.509Z,1.80
2023-04-29T17:42:03.980Z,1.90
2023-04-29T17:44:31.474Z,1.95
2023-04-29T17:46:58.958Z,2.35
2023-04-29T17:49:25.790Z,1.70
2023-04-29T17:51:52.652Z,2.70
2023-04-29T17:54:19.462Z,1.55
2023-04-29T17:56:46.254Z,1.60
2023-04-29T17:59:12.987Z,1.40
2023-04-29T18:01:40.165Z,1.60
2023-04-29T18:04:07.957Z,1.50
2023-04-29T18:06:34.936Z,1.33
2023-04-29T18:09:02.320Z,2.05
2023-04-29T18:11:29.322Z,1.50
2023-04-29T18:13:56.480Z,1.55
2023-04-29T18:16:25.305Z,1.40
2023-04-29T18:18:56.900Z,1.48
2023-04-29T18:21:28.467Z,1.33
2023-04-29T18:23:56.783Z,1.70
2023-04-29T18:26:24.400Z,1.50
2023-04-29T18:28:51.896Z,1.20
2023-04-29T18:31:20.282Z,1.50
2023-04-29T18:33:47.436Z,1.83
2023-04-29T18:36:15.486Z,2.95
2023-04-29T18:38:44.081Z,3.17
2023-04-29T18:41:11.962Z,2.03
2023-04-29T18:43:39.821Z,1.50
2023-04-29T18:46:06.790Z,1.60
2023-04-29T18:48:35.712Z,1.23
2023-04-29T18:51:06.063Z,1.40
2023-04-29T18:53:33.006Z,1.55
2023-04-29T18:55:59.983Z,2.30
2023-04-29T18:58:27.289Z,2.67
2023-04-29T19:00:54.594Z,3.00
2023-04-29T19:03:21.793Z,4.35
2023-04-29T19:05:48.754Z,4.90
2023-04-29T19:08:16.508Z,6.97
2023-04-29T19:10:44.359Z,6.93
2023-04-29T19:13:11.990Z,8.45
2023-04-29T19:15:39.725Z,7.40
2023-04-29T19:18:07.178Z,4.45
2023-04-29T19:20:34.535Z,4.45
2023-04-29T19:23:01.331Z,3.55
2023-04-29T19:25:28.536Z,3.30
2023-04-29T19:27:55.313Z,3.38
2023-04-29T19:30:22.237Z,4.13
2023-04-29T19:32:49.313Z,4.05
2023-04-29T19:35:16.162Z,4.38
2023-04-29T19:37:44.146Z,3.85
2023-04-29T19:40:11.890Z,4.10
2023-04-29T19:42:39.715Z,4.25
2023-04-29T19:45:07.792Z,4.32
2023-04-29T19:47:35.093Z,4.38
2023-04-29T19:50:02.301Z,4.53
2023-04-29T19:52:29.834Z,5.10
2023-04-29T19:54:57.053Z,4.75
2023-04-29T19:57:23.911Z,4.45
2023-04-29T19:59:50.749Z,4.13
2023-04-29T20:02:19.659Z,3.83
2023-04-29T20:04:48.193Z,3.55
2023-04-29T20:07:15.610Z,4.38
2023-04-29T20:09:45.779Z,4.38
2023-04-29T20:12:12.593Z,4.75
2023-04-29T20:14:41.219Z,4.35
2023-04-29T20:17:08.522Z,4.40
2023-04-29T20:19:35.370Z,4.57
2023-04-29T20:22:02.136Z,4.70
2023-04-29T20:24:29.423Z,5.25
2023-04-29T20:26:56.500Z,5.38
2023-04-29T20:29:24.819Z,5.05
2023-04-29T20:31:52.070Z,5.15
2023-04-29T20:34:19.173Z,5.50
2023-04-29T20:36:46.310Z,4.85
2023-04-29T20:39:13.346Z,5.60
2023-04-29T20:41:40.421Z,5.38
2023-04-29T20:44:08.017Z,4.60
2023-04-29T20:46:35.123Z,5.30
2023-04-29T20:49:03.139Z,5.20
2023-04-29T20:51:32.336Z,5.55
2023-04-29T20:53:59.768Z,5.50
2023-04-29T20:56:26.798Z,5.70
2023-04-29T20:58:53.574Z,5.30
2023-04-29T21:01:20.631Z,5.95
2023-04-29T21:03:47.466Z,5.53
2023-04-29T21:06:14.323Z,5.57
2023-04-29T21:08:41.407Z,5.53
2023-04-29T21:11:09.990Z,5.50
2023-04-29T21:13:37.322Z,5.88
2023-04-29T21:16:04.500Z,5.57
2023-04-29T21:18:31.332Z,5.85
2023-04-29T21:20:58.106Z,5.55
2023-04-29T21:23:25.017Z,5.70
2023-04-29T21:25:52.025Z,5.55
2023-04-29T21:28:18.838Z,5.22
2023-04-29T21:30:45.620Z,5.22
2023-04-29T21:33:12.874Z,4.93
2023-04-29T21:35:43.336Z,5.07
2023-04-29T21:38:11.501Z,5.68
2023-04-29T21:40:41.550Z,5.03
2023-04-29T21:43:10.598Z,6.00
2023-04-29T21:45:38.273Z,5.47
2023-04-29T21:48:16.594Z,5.65
2023-04-29T21:50:44.567Z,5.80
2023-04-29T21:53:14.399Z,5.80
2023-04-29T21:55:42.809Z,5.70
2023-04-29T21:58:10.788Z,5.20
2023-04-29T22:00:40.760Z,5.63
2023-04-29T22:03:09.065Z,5.55
2023-04-29T22:05:36.824Z,5.63
2023-04-29T22:08:07.081Z,5.57
2023-04-29T22:10:35.450Z,5.45
2023-04-29T22:13:03.051Z,5.55
2023-04-29T22:15:29.934Z,5.53
2023-04-29T22:17:57.780Z,5.53
2023-04-29T22:20:25.651Z,5.65
2023-04-29T22:22:53.136Z,5.00
2023-04-29T22:25:21.632Z,4.97
2023-04-29T22:27:49.798Z,4.78
2023-04-29T22:30:17.703Z,5.28
2023-04-29T22:32:44.891Z,5.63
2023-04-29T22:35:11.909Z,4.95
2023-04-29T22:37:38.751Z,4.93
2023-04-29T22:40:06.216Z,6.05
2023-04-29T22:42:32.986Z,4.85
2023-04-29T22:45:01.046Z,5.20
2023-04-29T22:47:28.088Z,5.40
2023-04-29T22:49:55.449Z,5.57
2023-04-29T22:52:22.408Z,4.82
2023-04-29T22:54:49.286Z,5.43
2023-04-29T22:57:16.303Z,5.50
2023-04-29T22:59:43.448Z,5.60
2023-04-29T23:02:10.462Z,5.47
2023-04-29T23:04:37.316Z,5.20
2023-04-29T23:07:04.737Z,5.35
2023-04-29T23:09:31.606Z,5.03
2023-04-29T23:11:59.282Z,5.45
2023-04-29T23:14:26.059Z,5.40
2023-04-29T23:16:53.371Z,4.90
2023-04-29T23:19:20.214Z,5.07
2023-04-29T23:21:47.007Z,4.80
2023-04-29T23:24:13.890Z,5.50
2023-04-29T23:26:40.641Z,5.43
2023-04-29T23:29:07.375Z,5.60
2023-04-29T23:31:34.321Z,5.20
2023-04-29T23:34:01.182Z,4.90
2023-04-29T23:36:28.332Z,5.43
2023-04-29T23:38:55.067Z,5.03
2023-04-29T23:41:21.862Z,4.88
2023-04-29T23:43:48.599Z,5.00
2023-04-29T23:46:16.187Z,6.32
2023-04-29T23:48:43.000Z,5.72
2023-04-29T23:51:09.808Z,5.80
2023-04-29T23:53:38.506Z,5.50
2023-04-29T23:56:05.920Z,5.20
2023-04-29T23:58:32.693Z,5.57
